KWRL/WRL METAR and TAF weather

Enter ICAO airport designator
Station Type Date Time Source
KWRL METAR 2021/08/01 16:53 UTC NOAA

KWRL 011653Z AUTO 28005KT 7SM CLR 26/13 A3031 RMK AO2 SLP222 T02610133


Station Type Date Time Source
KWRL Decoded METAR 2021/08/01 16:53 UTC NOAA

WORLAND MUNICIPAL AIRPORT, WY, United States (KWRL) 43-58N 107-57W 1271M
Aug 01, 2021 - 12:53 PM EDT / 2021.08.01 1653 UTC
Wind: from the W (280 degrees) at 6 MPH (5 KT):0
Visibility: 7 mile(s):0
Sky conditions: clear
Temperature: 79.0 F (26.1 C)
Dew Point: 55.9 F (13.3 C)
Relative Humidity: 45%
Pressure (altimeter): 30.31 in. Hg (1026 hPa)
ob: KWRL 011653Z AUTO 28005KT 7SM CLR 26/13 A3031 RMK AO2 SLP222 T02610133
cycle: 17

Station Type Date Time Source
KWRL TAF 2021/08/01 18:36 UTC NOAA

TAF KWRL 011735Z 0118/0218 VRB06KT 6SM FU FEW110

Example: see airport list